Time;durP1;ratioP1;P1;durP2;ratioP2;P2;SDS_P1;SDS_P2;PMS_P1;PMS_P2;Temp;Humidity;BMP_temperature;BMP_pressure;BME280_temperature;BME280_humidity;BME280_pressure;Samples;Min_cycle;Max_cycle;Signal;HPM_P1;HPM_P2
2023/06/18 00:01:58;;;;;;;3.97;3.53;;;17.40;99.90;;;;;;5031810;28;20179;-69
2023/06/18 00:04:23;;;;;;;4.97;3.57;;;17.50;99.90;;;;;;5031554;28;20452;-69
2023/06/18 00:06:49;;;;;;;3.80;3.27;;;17.50;99.90;;;;;;5032014;28;20489;-69
2023/06/18 00:09:14;;;;;;;3.47;2.80;;;17.60;99.90;;;;;;5030442;28;20620;-70
2023/06/18 00:11:40;;;;;;;3.33;2.97;;;17.60;99.90;;;;;;5030087;28;20188;-69
2023/06/18 00:14:05;;;;;;;3.60;3.00;;;17.70;99.80;;;;;;5031351;28;20202;-71
2023/06/18 00:16:31;;;;;;;5.03;3.53;;;17.70;98.80;;;;;;5031212;28;20216;-70
2023/06/18 00:18:57;;;;;;;4.00;3.70;;;17.70;98.70;;;;;;5031270;28;20175;-70
2023/06/18 00:21:22;;;;;;;4.07;3.20;;;17.80;98.80;;;;;;5030939;28;20183;-71
2023/06/18 00:23:48;;;;;;;3.67;3.40;;;17.80;98.70;;;;;;5031327;28;20172;-70
2023/06/18 00:26:13;;;;;;;3.43;2.80;;;17.90;98.20;;;;;;5029935;28;20183;-70
2023/06/18 00:28:38;;;;;;;3.73;3.40;;;17.80;99.20;;;;;;5031544;28;20168;-70
2023/06/18 00:31:05;;;;;;;3.43;3.13;;;17.90;98.40;;;;;;5032197;28;20961;-70
2023/06/18 00:33:32;;;;;;;3.93;3.07;;;17.90;98.10;;;;;;5035745;28;20163;-69
2023/06/18 00:35:59;;;;;;;5.17;3.30;;;18.00;97.50;;;;;;5033382;28;21023;-72
2023/06/18 00:38:26;;;;;;;3.83;3.40;;;18.10;96.80;;;;;;5034725;28;20437;-71
2023/06/18 00:40:52;;;;;;;3.33;2.97;;;18.00;98.40;;;;;;5034751;28;20429;-70
2023/06/18 00:43:18;;;;;;;3.53;3.23;;;18.00;98.90;;;;;;5034155;28;20406;-71
2023/06/18 00:45:47;;;;;;;3.37;3.07;;;18.10;97.90;;;;;;5034547;28;20163;-71
2023/06/18 00:48:13;;;;;;;3.20;2.90;;;18.10;97.30;;;;;;5034681;28;20178;-70
2023/06/18 00:50:40;;;;;;;3.20;2.90;;;18.10;96.90;;;;;;5034085;28;20521;-69
2023/06/18 00:53:07;;;;;;;4.10;3.27;;;18.00;97.10;;;;;;5034427;28;20410;-70
2023/06/18 00:55:37;;;;;;;3.50;3.20;;;18.00;97.90;;;;;;5034255;28;20453;-71
2023/06/18 00:58:03;;;;;;;7.10;3.53;;;18.00;97.90;;;;;;5034265;28;20402;-70
2023/06/18 01:00:32;;;;;;;3.53;3.10;;;17.90;97.90;;;;;;5033889;28;21282;-69
2023/06/18 01:03:00;;;;;;;4.93;3.57;;;17.90;98.10;;;;;;5034041;28;20468;-69
2023/06/18 01:05:25;;;;;;;3.30;3.00;;;17.80;99.20;;;;;;5034079;28;20405;-71
2023/06/18 01:07:52;;;;;;;3.70;3.40;;;17.70;99.90;;;;;;5034237;28;20403;-70
2023/06/18 01:10:20;;;;;;;3.47;3.17;;;17.70;99.90;;;;;;5033728;28;20164;-70
2023/06/18 01:12:48;;;;;;;4.20;3.80;;;17.60;99.90;;;;;;5033932;28;20444;-71
2023/06/18 01:15:15;;;;;;;4.47;4.07;;;17.60;99.90;;;;;;5033930;28;20394;-72
2023/06/18 01:17:46;;;;;;;4.57;3.80;;;17.50;99.90;;;;;;5033947;28;20874;-71
2023/06/18 01:20:12;;;;;;;7.87;4.00;;;17.50;99.90;;;;;;5033662;28;20426;-71
2023/06/18 01:23:02;;;;;;;4.83;3.90;;;17.40;99.90;;;;;;5033792;28;21118;-71
2023/06/18 01:25:37;;;;;;;3.37;3.07;;;17.30;99.90;;;;;;5033852;28;20390;-71
2023/06/18 01:28:07;;;;;;;4.53;4.03;;;17.20;99.90;;;;;;5033771;28;20405;-70
2023/06/18 01:30:39;;;;;;;6.80;4.73;;;17.20;99.90;;;;;;5033759;28;20469;-70
2023/06/18 01:33:09;;;;;;;5.23;3.70;;;17.10;99.90;;;;;;5033865;28;20395;-71
2023/06/18 01:35:34;;;;;;;4.70;4.20;;;17.00;99.90;;;;;;5033905;28;20438;-69
2023/06/18 01:38:18;;;;;;;4.73;4.33;;;17.00;99.90;;;;;;5034334;28;20398;-70
2023/06/18 01:41:10;;;;;;;4.70;3.53;;;17.00;99.90;;;;;;5034595;28;20221;-69
2023/06/18 01:43:52;;;;;;;4.30;3.90;;;16.90;99.90;;;;;;5034194;28;20395;-70
2023/06/18 01:46:22;;;;;;;4.40;4.00;;;16.90;99.90;;;;;;5034591;28;20395;-70
2023/06/18 01:48:53;;;;;;;4.67;3.97;;;16.90;99.90;;;;;;5034800;28;20402;-69
2023/06/18 01:51:20;;;;;;;5.30;4.23;;;16.80;99.90;;;;;;5033159;28;20438;-69
2023/06/18 01:53:47;;;;;;;8.00;4.17;;;16.80;99.90;;;;;;5034571;28;20446;-70
2023/06/18 01:56:13;;;;;;;5.50;4.60;;;16.80;99.90;;;;;;5034345;28;20438;-69
2023/06/18 01:58:43;;;;;;;3.40;3.10;;;16.80;99.90;;;;;;5033945;28;20398;-72
2023/06/18 02:01:11;;;;;;;3.23;2.93;;;16.80;99.90;;;;;;5032530;28;20427;-70
2023/06/18 02:03:40;;;;;;;3.90;3.37;;;16.70;99.90;;;;;;5032750;28;20426;-71
2023/06/18 02:06:07;;;;;;;4.87;3.83;;;16.70;99.90;;;;;;5033050;28;20402;-70
2023/06/18 02:08:32;;;;;;;3.77;3.10;;;16.70;99.90;;;;;;5032886;28;20410;-70
2023/06/18 02:10:58;;;;;;;5.30;4.00;;;16.70;99.90;;;;;;5032604;28;20430;-69
2023/06/18 02:13:24;;;;;;;4.33;3.93;;;16.70;99.90;;;;;;5032875;28;20167;-71
2023/06/18 02:15:49;;;;;;;5.10;4.20;;;16.60;99.90;;;;;;5032729;28;20192;-70
2023/06/18 02:18:15;;;;;;;6.10;4.07;;;16.60;99.90;;;;;;5032739;28;20160;-70
2023/06/18 02:20:41;;;;;;;4.43;3.63;;;16.60;99.90;;;;;;5032362;28;20183;-69
2023/06/18 02:23:08;;;;;;;5.10;3.90;;;16.50;99.90;;;;;;5031375;28;20465;-70
2023/06/18 02:25:34;;;;;;;4.30;3.70;;;16.50;99.90;;;;;;5031357;28;20449;-70
2023/06/18 02:28:00;;;;;;;4.93;3.30;;;16.50;99.90;;;;;;5032649;28;20430;-70
2023/06/18 02:30:30;;;;;;;3.77;3.33;;;16.40;99.90;;;;;;5032176;28;20630;-70
2023/06/18 02:32:58;;;;;;;5.37;4.20;;;16.40;99.90;;;;;;5031930;28;20394;-71
2023/06/18 02:35:24;;;;;;;5.70;4.60;;;16.40;99.90;;;;;;5032209;28;20825;-71
2023/06/18 02:37:52;;;;;;;11.40;4.97;;;16.30;99.90;;;;;;5032425;28;20509;-70
2023/06/18 02:40:17;;;;;;;4.07;3.63;;;16.20;99.90;;;;;;5032040;28;20402;-69
2023/06/18 02:42:50;;;;;;;6.23;3.87;;;16.20;99.90;;;;;;5032305;28;20418;-69
2023/06/18 02:45:18;;;;;;;4.30;3.90;;;16.20;99.90;;;;;;5032339;28;20714;-69
2023/06/18 02:47:44;;;;;;;4.60;3.80;;;16.10;99.90;;;;;;5032358;28;20900;-69
2023/06/18 02:50:11;;;;;;;4.90;4.10;;;16.10;99.90;;;;;;5031910;28;20402;-69
2023/06/18 02:52:37;;;;;;;3.70;3.40;;;16.10;99.90;;;;;;5030747;28;20434;-70
2023/06/18 02:55:03;;;;;;;5.60;3.83;;;15.90;99.90;;;;;;5031398;28;20407;-69
2023/06/18 02:57:29;;;;;;;6.27;3.80;;;15.90;99.90;;;;;;5032125;28;20808;-69
2023/06/18 02:59:54;;;;;;;4.20;3.77;;;15.90;99.90;;;;;;5031696;28;20417;-69
2023/06/18 03:02:20;;;;;;;5.57;4.50;;;15.90;99.90;;;;;;5032007;28;20192;-70
2023/06/18 03:04:46;;;;;;;4.30;3.37;;;15.90;99.90;;;;;;5031963;28;20175;-70
2023/06/18 03:07:11;;;;;;;3.27;2.97;;;15.90;99.90;;;;;;5031969;28;20171;-69
2023/06/18 03:09:37;;;;;;;4.30;3.67;;;15.80;99.90;;;;;;5031844;28;20218;-70
2023/06/18 03:12:02;;;;;;;4.30;3.70;;;15.80;99.90;;;;;;5030488;28;20556;-70
2023/06/18 03:14:28;;;;;;;3.77;3.00;;;15.80;99.90;;;;;;5031932;28;20163;-70
2023/06/18 03:16:53;;;;;;;4.67;4.20;;;15.80;99.90;;;;;;5031991;28;20665;-70
2023/06/18 03:19:19;;;;;;;5.00;3.10;;;15.80;99.90;;;;;;5031883;28;20167;-70
2023/06/18 03:21:44;;;;;;;4.60;3.50;;;15.70;99.90;;;;;;5031377;28;20187;-70
2023/06/18 03:24:11;;;;;;;3.80;3.43;;;15.70;99.90;;;;;;5031882;28;20242;-70
2023/06/18 03:26:37;;;;;;;5.37;3.80;;;15.70;99.90;;;;;;5031784;28;20673;-70
2023/06/18 03:29:03;;;;;;;6.90;4.97;;;15.70;99.90;;;;;;5031655;28;20425;-69
2023/06/18 03:31:30;;;;;;;5.70;4.80;;;15.70;99.90;;;;;;5031384;28;20418;-70
2023/06/18 03:34:01;;;;;;;4.73;4.23;;;15.70;99.90;;;;;;5030529;28;20774;-70
2023/06/18 03:36:30;;;;;;;5.67;5.07;;;15.60;99.90;;;;;;5031580;28;20438;-70
2023/06/18 03:38:55;;;;;;;4.00;3.60;;;15.70;99.90;;;;;;5031457;28;20488;-70
2023/06/18 03:41:22;;;;;;;8.50;4.37;;;15.60;99.90;;;;;;5031090;28;20886;-70
2023/06/18 03:43:47;;;;;;;9.57;6.70;;;15.60;99.90;;;;;;5031508;28;20167;-70
2023/06/18 03:46:13;;;;;;;6.33;5.40;;;15.70;99.90;;;;;;5031532;28;20524;-71
2023/06/18 03:48:39;;;;;;;7.23;5.13;;;15.70;99.90;;;;;;5031598;28;20172;-69
2023/06/18 03:51:05;;;;;;;5.70;4.30;;;15.70;99.90;;;;;;5031117;28;20179;-69
2023/06/18 03:53:36;;;;;;;3.63;3.23;;;15.80;99.90;;;;;;5031584;28;20493;-70
2023/06/18 03:56:02;;;;;;;4.20;3.80;;;15.80;99.90;;;;;;5031533;28;20686;-70
2023/06/18 03:58:28;;;;;;;4.60;4.17;;;15.80;99.90;;;;;;5031542;28;20395;-70
2023/06/18 04:00:53;;;;;;;4.43;4.03;;;15.80;99.90;;;;;;5031219;28;20445;-70
2023/06/18 04:03:19;;;;;;;4.63;3.80;;;15.80;99.90;;;;;;5029886;28;20559;-69
2023/06/18 04:05:44;;;;;;;6.20;4.17;;;15.90;99.90;;;;;;5033303;28;20172;-70
2023/06/18 04:08:10;;;;;;;4.70;3.90;;;16.00;99.90;;;;;;5035291;28;20267;-70
2023/06/18 04:10:35;;;;;;;4.40;4.00;;;16.00;99.90;;;;;;5034848;28;20557;-70
2023/06/18 04:13:01;;;;;;;4.57;4.07;;;16.00;99.90;;;;;;5034977;28;20225;-70
2023/06/18 04:15:26;;;;;;;5.40;4.37;;;16.00;99.90;;;;;;5034912;28;20186;-70
2023/06/18 04:17:52;;;;;;;4.70;4.07;;;16.10;99.90;;;;;;5034797;28;20195;-70
2023/06/18 04:20:18;;;;;;;5.93;4.80;;;16.20;99.90;;;;;;5034730;28;20167;-70
2023/06/18 04:22:43;;;;;;;8.70;4.67;;;16.30;99.90;;;;;;5034709;28;20179;-70
2023/06/18 04:25:09;;;;;;;6.43;5.27;;;16.40;99.90;;;;;;5034969;28;20159;-70
2023/06/18 04:27:34;;;;;;;4.93;4.53;;;16.50;99.90;;;;;;5034783;28;20221;-71
2023/06/18 04:30:00;;;;;;;6.63;5.60;;;16.60;99.90;;;;;;5034496;28;20263;-70
2023/06/18 04:32:25;;;;;;;6.20;5.60;;;16.60;99.90;;;;;;5034547;28;20681;-70
2023/06/18 04:34:51;;;;;;;8.07;5.13;;;16.60;99.90;;;;;;5035040;28;20304;-71
2023/06/18 04:37:17;;;;;;;6.67;5.97;;;16.80;99.90;;;;;;5034597;28;20195;-70
2023/06/18 04:39:42;;;;;;;9.00;6.43;;;16.80;99.90;;;;;;5034637;28;20217;-70
2023/06/18 04:42:08;;;;;;;7.40;5.63;;;16.90;99.90;;;;;;5034223;28;20187;-71
2023/06/18 04:44:33;;;;;;;7.77;6.47;;;17.00;99.90;;;;;;5034548;28;20533;-71
2023/06/18 04:46:59;;;;;;;10.43;7.93;;;17.20;99.90;;;;;;5034552;28;20688;-70
2023/06/18 04:49:24;;;;;;;6.77;5.87;;;17.30;99.90;;;;;;5034488;28;20171;-70
2023/06/18 04:51:50;;;;;;;6.53;5.83;;;17.40;99.90;;;;;;5034146;28;20183;-71
2023/06/18 04:54:16;;;;;;;9.07;5.80;;;17.40;99.90;;;;;;5034491;28;20225;-71
2023/06/18 04:56:42;;;;;;;7.03;5.60;;;17.60;99.90;;;;;;5033018;28;20645;-71
2023/06/18 04:59:07;;;;;;;8.17;5.13;;;17.70;99.90;;;;;;5034341;28;20500;-71
2023/06/18 05:01:33;;;;;;;6.17;4.80;;;17.80;99.90;;;;;;5032659;28;20188;-71
2023/06/18 05:03:59;;;;;;;7.43;4.67;;;17.90;99.90;;;;;;5034107;28;20287;-70
2023/06/18 05:06:24;;;;;;;6.60;5.90;;;18.10;99.90;;;;;;5034222;28;20172;-71
2023/06/18 05:08:50;;;;;;;5.87;5.27;;;18.30;99.90;;;;;;5032891;28;20179;-71
2023/06/18 05:11:16;;;;;;;5.70;4.90;;;18.50;99.90;;;;;;5033765;28;20216;-70
2023/06/18 05:13:41;;;;;;;5.83;5.33;;;18.60;99.90;;;;;;5034000;28;20206;-69
2023/06/18 05:16:07;;;;;;;5.33;4.83;;;18.80;99.90;;;;;;5033766;28;20215;-71
2023/06/18 05:18:35;;;;;;;6.30;5.57;;;18.80;99.90;;;;;;5033237;28;20174;-70
2023/06/18 05:21:01;;;;;;;10.20;5.43;;;19.00;99.90;;;;;;5033600;28;20186;-69
2023/06/18 05:23:29;;;;;;;9.13;5.47;;;19.00;99.90;;;;;;5033880;28;20406;-70
2023/06/18 05:25:55;;;;;;;9.27;5.87;;;19.00;99.90;;;;;;5033959;28;20175;-69
2023/06/18 05:28:20;;;;;;;7.27;5.30;;;19.30;99.90;;;;;;5033768;28;20405;-70
2023/06/18 05:30:46;;;;;;;6.73;5.43;;;19.40;99.90;;;;;;5033314;28;20183;-71
2023/06/18 05:33:12;;;;;;;5.53;5.03;;;19.30;99.90;;;;;;5033764;28;20167;-70
2023/06/18 05:35:38;;;;;;;7.80;4.83;;;19.50;99.90;;;;;;5033606;28;20402;-71
2023/06/18 05:38:04;;;;;;;7.70;6.30;;;19.70;99.90;;;;;;5033643;28;20527;-71
2023/06/18 05:40:29;;;;;;;5.37;4.77;;;19.80;99.90;;;;;;5033233;28;20178;-72
2023/06/18 05:42:56;;;;;;;5.60;4.40;;;19.60;99.90;;;;;;5033515;28;20501;-70
2023/06/18 05:45:21;;;;;;;8.73;4.93;;;19.60;99.90;;;;;;5033426;28;20626;-70
2023/06/18 05:47:47;;;;;;;8.57;6.43;;;19.60;99.90;;;;;;5033390;28;20417;-70
2023/06/18 05:50:12;;;;;;;9.70;7.77;;;19.70;99.90;;;;;;5033012;28;20179;-70
2023/06/18 05:52:38;;;;;;;10.50;8.00;;;19.80;99.90;;;;;;5033269;28;20193;-70
2023/06/18 05:55:06;;;;;;;8.03;6.07;;;19.80;99.90;;;;;;5032022;28;20230;-70
2023/06/18 05:57:32;;;;;;;7.50;6.13;;;19.70;99.90;;;;;;5033184;28;20195;-70
2023/06/18 05:59:57;;;;;;;6.27;4.57;;;19.80;99.90;;;;;;5032858;28;20398;-70
2023/06/18 06:02:23;;;;;;;6.10;5.40;;;19.80;99.90;;;;;;5031685;28;20669;-71
2023/06/18 06:04:48;;;;;;;5.90;4.53;;;20.10;99.90;;;;;;5033014;28;20199;-71
2023/06/18 06:07:14;;;;;;;8.03;5.17;;;20.40;99.90;;;;;;5032929;28;20171;-71
2023/06/18 06:09:40;;;;;;;9.07;5.40;;;20.70;99.90;;;;;;5032840;28;20175;-70
2023/06/18 06:12:05;;;;;;;6.67;4.33;;;20.90;99.90;;;;;;5032490;28;20695;-71
2023/06/18 06:14:31;;;;;;;5.20;4.63;;;21.30;99.90;;;;;;5032869;28;20164;-71
2023/06/18 06:16:57;;;;;;;5.37;4.87;;;21.60;99.90;;;;;;5032667;28;20450;-70
2023/06/18 06:19:24;;;;;;;7.43;5.50;;;21.90;99.90;;;;;;5032998;28;20159;-70
2023/06/18 06:21:50;;;;;;;10.83;4.97;;;22.50;99.90;;;;;;5031153;28;20425;-71
2023/06/18 06:24:15;;;;;;;5.67;5.10;;;23.00;99.90;;;;;;5032843;28;20489;-71
2023/06/18 06:26:41;;;;;;;6.10;5.00;;;23.80;99.90;;;;;;5032662;28;20172;-71
2023/06/18 06:29:07;;;;;;;6.87;5.47;;;24.60;98.20;;;;;;5032467;28;20198;-71
2023/06/18 06:31:33;;;;;;;7.27;5.90;;;25.10;93.30;;;;;;5031893;28;20509;-71
2023/06/18 06:33:59;;;;;;;5.67;4.50;;;25.10;85.50;;;;;;5032462;28;20167;-71
2023/06/18 06:36:25;;;;;;;5.97;5.43;;;25.50;84.30;;;;;;5032498;28;20450;-72
2023/06/18 06:38:50;;;;;;;5.67;5.13;;;25.50;79.30;;;;;;5032359;28;20513;-71
2023/06/18 06:41:16;;;;;;;5.07;4.57;;;25.80;78.30;;;;;;5032058;28;20195;-71
2023/06/18 06:43:42;;;;;;;6.63;5.87;;;26.10;74.20;;;;;;5032223;28;20217;-70
2023/06/18 06:46:08;;;;;;;5.53;4.50;;;26.20;73.60;;;;;;5032124;28;20588;-71
2023/06/18 06:48:34;;;;;;;7.00;5.80;;;26.70;73.50;;;;;;5032246;28;20195;-70
2023/06/18 06:50:59;;;;;;;5.30;4.87;;;27.20;70.60;;;;;;5031946;28;20872;-72
2023/06/18 06:53:25;;;;;;;5.03;4.57;;;27.70;67.30;;;;;;5032077;28;20254;-72
2023/06/18 06:55:50;;;;;;;5.80;4.83;;;28.20;63.80;;;;;;5032058;28;20191;-71
2023/06/18 06:58:16;;;;;;;5.67;4.50;;;28.80;60.80;;;;;;5030707;28;20181;-71
2023/06/18 07:00:41;;;;;;;6.70;4.93;;;29.10;58.20;;;;;;5031838;28;20841;-72
2023/06/18 07:03:08;;;;;;;5.67;5.17;;;29.90;55.70;;;;;;5031773;28;20658;-72
2023/06/18 07:05:34;;;;;;;5.90;5.03;;;30.30;52.70;;;;;;5032270;28;20166;-71
2023/06/18 07:08:02;;;;;;;5.43;4.93;;;30.70;51.80;;;;;;5032005;28;20410;-72
2023/06/18 07:10:27;;;;;;;5.37;4.87;;;31.10;49.90;;;;;;5031800;28;20626;-70
2023/06/18 07:12:53;;;;;;;5.17;4.70;;;31.30;48.40;;;;;;5031874;28;20405;-69
2023/06/18 07:15:18;;;;;;;6.33;5.10;;;31.70;48.20;;;;;;5032027;28;20633;-71
2023/06/18 07:17:47;;;;;;;5.10;4.60;;;32.00;47.30;;;;;;5031913;28;20191;-72
2023/06/18 07:20:12;;;;;;;5.23;4.83;;;32.10;44.90;;;;;;5031714;28;20211;-71
2023/06/18 07:22:38;;;;;;;4.63;4.23;;;32.70;45.00;;;;;;5031932;28;20425;-72
2023/06/18 07:25:04;;;;;;;5.73;5.23;;;33.20;44.70;;;;;;5031855;28;20239;-72
2023/06/18 07:27:30;;;;;;;5.93;5.37;;;33.00;42.80;;;;;;5032076;28;20168;-71
2023/06/18 07:29:56;;;;;;;5.23;4.73;;;33.30;43.50;;;;;;5031641;28;20412;-71
2023/06/18 07:32:21;;;;;;;5.73;5.23;;;33.70;43.40;;;;;;5031871;28;20183;-71
2023/06/18 07:34:48;;;;;;;5.20;4.70;;;33.50;41.50;;;;;;5031849;28;20201;-71
2023/06/18 07:37:13;;;;;;;5.80;5.30;;;34.40;42.20;;;;;;5031569;28;21024;-70
2023/06/18 07:39:39;;;;;;;7.03;6.43;;;34.20;38.70;;;;;;5031739;28;20234;-70
2023/06/18 07:42:05;;;;;;;5.80;5.27;;;34.10;37.80;;;;;;5035398;28;20199;-71
2023/06/18 07:44:30;;;;;;;5.87;5.30;;;34.40;38.10;;;;;;5035795;28;20176;-70
2023/06/18 07:46:56;;;;;;;4.60;4.20;;;34.30;37.50;;;;;;5034402;28;20175;-70
2023/06/18 07:49:21;;;;;;;4.47;4.10;;;34.30;37.40;;;;;;5035690;28;20222;-70
2023/06/18 07:51:48;;;;;;;6.83;4.97;;;34.30;37.70;;;;;;5035362;28;20666;-70
2023/06/18 07:54:13;;;;;;;6.10;4.90;;;34.30;37.10;;;;;;5035486;28;20168;-71
2023/06/18 07:56:39;;;;;;;5.17;4.63;;;34.20;37.00;;;;;;5035447;28;20480;-70
2023/06/18 07:59:05;;;;;;;6.03;5.43;;;34.20;36.70;;;;;;5035408;28;20642;-71
2023/06/18 08:01:30;;;;;;;7.63;5.00;;;34.70;34.90;;;;;;5033823;28;20662;-71
2023/06/18 08:03:56;;;;;;;6.43;5.80;;;35.60;35.10;;;;;;5035348;28;20184;-69
2023/06/18 08:06:21;;;;;;;7.20;5.83;;;36.70;32.80;;;;;;5034912;28;20168;-71
2023/06/18 08:08:48;;;;;;;6.57;4.93;;;37.20;31.70;;;;;;5035362;28;20164;-70
2023/06/18 08:11:15;;;;;;;5.20;4.80;;;37.90;32.80;;;;;;5033759;28;20672;-71
2023/06/18 08:13:40;;;;;;;5.40;5.00;;;38.90;31.10;;;;;;5035483;28;20952;-70
2023/06/18 08:16:06;;;;;;;4.73;4.33;;;39.80;31.20;;;;;;5035152;28;20453;-71
2023/06/18 08:18:31;;;;;;;5.57;5.07;;;40.80;30.10;;;;;;5035181;28;20159;-73
2023/06/18 08:20:57;;;;;;;4.80;4.40;;;41.50;28.70;;;;;;5034722;28;20266;-71
2023/06/18 08:23:22;;;;;;;5.27;4.77;;;42.20;28.80;;;;;;5035024;28;20164;-70
2023/06/18 08:25:48;;;;;;;6.73;5.90;;;41.50;26.80;;;;;;5033468;28;20218;-70
2023/06/18 08:28:16;;;;;;;7.43;5.47;;;41.00;27.30;;;;;;5033962;28;20536;-71
2023/06/18 08:30:41;;;;;;;5.20;4.77;;;40.60;26.90;;;;;;5034643;28;20194;-70
2023/06/18 08:33:07;;;;;;;5.53;5.03;;;39.80;26.70;;;;;;5034968;28;20377;-70
2023/06/18 08:35:32;;;;;;;9.23;6.20;;;40.30;27.70;;;;;;5034863;28;20172;-71
2023/06/18 08:37:58;;;;;;;6.90;6.30;;;40.90;26.90;;;;;;5033464;28;20218;-70
2023/06/18 08:40:25;;;;;;;5.93;5.43;;;41.50;27.50;;;;;;5034274;28;20635;-70
2023/06/18 08:42:51;;;;;;;7.17;4.27;;;42.20;27.20;;;;;;5034728;28;20575;-70
2023/06/18 08:45:16;;;;;;;6.00;5.50;;;41.20;24.80;;;;;;5034645;28;20410;-70
2023/06/18 08:47:45;;;;;;;5.70;5.20;;;41.60;25.60;;;;;;5034662;28;20175;-71
2023/06/18 08:50:13;;;;;;;5.33;4.93;;;42.10;26.20;;;;;;5034253;28;20514;-69
2023/06/18 08:52:41;;;;;;;5.90;5.30;;;42.90;26.60;;;;;;5033155;28;20404;-71
2023/06/18 08:55:09;;;;;;;5.33;4.90;;;43.40;25.30;;;;;;5034324;28;20756;-71
2023/06/18 08:57:53;;;;;;;5.93;5.43;;;43.80;25.20;;;;;;5034416;28;20466;-71
2023/06/18 09:00:19;;;;;;;5.37;4.97;;;44.60;25.20;;;;;;5034143;28;20389;-71
2023/06/18 09:02:45;;;;;;;5.20;4.77;;;45.80;24.90;;;;;;5034300;28;20463;-72
2023/06/18 09:05:12;;;;;;;5.23;4.83;;;47.00;24.10;;;;;;5034250;28;20391;-71
2023/06/18 09:07:38;;;;;;;5.40;4.90;;;47.30;22.80;;;;;;5034163;28;20402;-71
2023/06/18 09:10:05;;;;;;;7.30;5.73;;;46.50;22.20;;;;;;5033867;28;20408;-71
2023/06/18 09:12:31;;;;;;;13.87;12.43;;;46.20;21.80;;;;;;5034090;28;20401;-71
2023/06/18 09:14:56;;;;;;;6.87;6.27;;;46.80;22.80;;;;;;5033851;28;20460;-71
2023/06/18 09:17:23;;;;;;;6.73;6.23;;;47.80;23.00;;;;;;5033895;28;20289;-71
2023/06/18 09:19:49;;;;;;;5.13;4.73;;;48.90;22.50;;;;;;5033575;28;20172;-71
2023/06/18 09:22:16;;;;;;;5.27;4.87;;;50.00;22.00;;;;;;5033868;28;20597;-72
2023/06/18 09:24:42;;;;;;;5.00;4.70;;;51.10;21.50;;;;;;5034037;28;20426;-70
2023/06/18 09:27:09;;;;;;;5.23;4.90;;;52.10;21.40;;;;;;5032574;28;20480;-70
2023/06/18 09:29:37;;;;;;;5.13;4.83;;;52.90;20.40;;;;;;5033910;28;20494;-71
2023/06/18 09:32:07;;;;;;;5.47;5.07;;;53.60;20.50;;;;;;5033113;28;20529;-70
2023/06/18 09:34:33;;;;;;;5.20;4.90;;;54.00;19.80;;;;;;5033636;28;20743;-71
2023/06/18 09:36:59;;;;;;;6.93;4.50;;;54.00;19.30;;;;;;5033550;28;20454;-72
2023/06/18 09:39:26;;;;;;;5.40;5.00;;;54.10;18.80;;;;;;5033579;28;20456;-71
2023/06/18 09:41:53;;;;;;;4.37;4.10;;;54.50;18.60;;;;;;5033246;28;20194;-71
2023/06/18 09:44:20;;;;;;;5.63;5.23;;;54.90;18.00;;;;;;5033455;28;20441;-72
2023/06/18 09:46:48;;;;;;;5.03;4.73;;;55.20;17.60;;;;;;5033474;28;20417;-72
2023/06/18 09:49:17;;;;;;;5.63;5.23;;;55.80;17.90;;;;;;5033352;28;20405;-72
2023/06/18 09:51:44;;;;;;;5.77;5.37;;;56.50;17.90;;;;;;5032918;28;20425;-68
2023/06/18 09:54:10;;;;;;;5.20;4.90;;;57.30;17.90;;;;;;5053248;28;20423;-67
2023/06/18 09:56:37;;;;;;;5.13;4.87;;;57.70;17.40;;;;;;5052181;28;20456;-68
2023/06/18 09:59:04;;;;;;;5.77;5.37;;;57.20;16.50;;;;;;5052915;28;20471;-68
2023/06/18 10:01:44;;;;;;;4.70;4.40;;;55.40;16.30;;;;;;5052798;28;20417;-67
2023/06/18 10:04:10;;;;;;;4.97;4.67;;;53.50;16.50;;;;;;5052551;28;20429;-67
2023/06/18 10:06:39;;;;;;;4.80;4.40;;;51.80;17.00;;;;;;5053022;28;20460;-67
2023/06/18 10:09:06;;;;;;;5.00;4.60;;;50.40;17.40;;;;;;5053152;28;20175;-68
2023/06/18 10:11:35;;;;;;;4.87;4.50;;;50.30;17.90;;;;;;5052644;28;20440;-68
2023/06/18 10:14:06;;;;;;;4.33;4.03;;;50.70;18.40;;;;;;5052926;28;20414;-68
2023/06/18 10:16:34;;;;;;;4.90;4.50;;;51.00;18.40;;;;;;5052779;28;20827;-67
2023/06/18 10:19:18;;;;;;;4.60;4.30;;;51.00;18.20;;;;;;5052645;28;20463;-69
2023/06/18 10:21:54;;;;;;;4.60;4.30;;;51.40;18.20;;;;;;5052171;28;20429;-67
2023/06/18 10:24:27;;;;;;;5.10;4.53;;;52.10;18.20;;;;;;5052763;28;20954;-67
2023/06/18 10:26:55;;;;;;;5.67;5.27;;;53.10;17.90;;;;;;5052973;28;20470;-69
2023/06/18 10:29:21;;;;;;;5.10;4.80;;;54.10;17.60;;;;;;5052519;28;20413;-68
2023/06/18 10:31:47;;;;;;;5.10;4.80;;;54.70;17.20;;;;;;5052156;28;20923;-68
2023/06/18 10:34:14;;;;;;;6.10;5.50;;;55.40;16.60;;;;;;5052447;28;20413;-68
2023/06/18 10:36:40;;;;;;;6.30;5.80;;;56.10;16.70;;;;;;5052454;28;20194;-68
2023/06/18 10:39:06;;;;;;;6.17;5.60;;;56.30;16.70;;;;;;5052564;28;20409;-68
2023/06/18 10:41:32;;;;;;;5.20;4.90;;;57.00;16.20;;;;;;5052285;28;20198;-69
2023/06/18 10:43:57;;;;;;;5.93;5.43;;;57.10;16.00;;;;;;5052399;28;20173;-69
2023/06/18 10:46:23;;;;;;;6.10;5.60;;;56.00;15.90;;;;;;5051995;28;20282;-68
2023/06/18 10:49:19;;;;;;;6.00;5.50;;;54.60;15.80;;;;;;5052191;28;20179;-67
2023/06/18 10:51:57;;;;;;;5.57;5.17;;;52.50;16.20;;;;;;5051875;28;20190;-68
2023/06/18 10:54:27;;;;;;;4.63;4.23;;;50.60;16.90;;;;;;5052082;28;20413;-67
2023/06/18 10:56:57;;;;;;;6.40;5.60;;;49.10;17.60;;;;;;5051747;28;20431;-67
2023/06/18 10:59:41;;;;;;;6.83;6.23;;;47.80;18.00;;;;;;5051909;28;20416;-67
2023/06/18 11:02:06;;;;;;;5.80;5.33;;;46.70;18.50;;;;;;5051609;28;20974;-67
2023/06/18 11:04:33;;;;;;;4.87;4.47;;;46.00;19.10;;;;;;5051900;28;20508;-67
2023/06/18 11:07:23;;;;;;;4.70;4.30;;;45.80;19.30;;;;;;5051920;28;20193;-67
2023/06/18 11:09:57;;;;;;;4.60;4.30;;;45.30;19.00;;;;;;5051502;28;20758;-67
2023/06/18 11:12:28;;;;;;;5.53;5.10;;;45.10;20.10;;;;;;5052122;28;20387;-67
2023/06/18 11:15:17;;;;;;;4.73;4.43;;;44.80;19.60;;;;;;5051115;28;20927;-67
2023/06/18 11:17:46;;;;;;;4.40;4.10;;;44.40;20.00;;;;;;5053555;28;20467;-67
2023/06/18 11:20:12;;;;;;;5.10;4.70;;;43.90;20.50;;;;;;5071620;28;20726;-67
2023/06/18 11:22:40;;;;;;;4.53;4.23;;;43.20;20.70;;;;;;5070727;28;20399;-67
2023/06/18 11:25:08;;;;;;;5.60;5.10;;;42.70;21.20;;;;;;5051779;28;20903;-67
2023/06/18 11:27:34;;;;;;;5.00;4.50;;;42.20;20.90;;;;;;5051642;28;20947;-67
2023/06/18 11:30:00;;;;;;;6.23;5.50;;;41.80;21.60;;;;;;5051323;28;20402;-67
2023/06/18 11:32:26;;;;;;;5.60;5.00;;;41.60;22.10;;;;;;5051627;28;20779;-67
2023/06/18 11:34:54;;;;;;;8.10;6.30;;;41.70;22.20;;;;;;5051688;28;20397;-67
2023/06/18 11:37:20;;;;;;;7.13;6.43;;;42.10;22.10;;;;;;5051904;28;20398;-66
2023/06/18 11:39:46;;;;;;;7.03;5.40;;;43.10;22.30;;;;;;5051510;28;20817;-66
2023/06/18 11:42:22;;;;;;;6.30;5.70;;;44.30;21.80;;;;;;5051502;28;20408;-66
2023/06/18 11:45:09;;;;;;;6.67;6.07;;;45.60;21.60;;;;;;5051669;28;20376;-66
2023/06/18 11:47:35;;;;;;;7.33;6.63;;;46.60;20.80;;;;;;5051556;28;20449;-67
2023/06/18 11:50:02;;;;;;;7.07;6.40;;;46.80;20.40;;;;;;5051464;28;20452;-67
2023/06/18 11:52:28;;;;;;;6.43;5.90;;;46.40;19.80;;;;;;5051472;28;20213;-67
2023/06/18 11:55:01;;;;;;;4.30;3.90;;;45.60;20.10;;;;;;5052577;28;20479;-67
2023/06/18 11:57:26;;;;;;;5.63;5.23;;;44.80;21.10;;;;;;5053223;28;20805;-68
2023/06/18 11:59:53;;;;;;;4.90;4.50;;;44.00;20.80;;;;;;5053356;28;20408;-67
2023/06/18 12:02:24;;;;;;;7.73;5.03;;;43.40;21.40;;;;;;5051357;28;20198;-67
2023/06/18 12:04:51;;;;;;;6.27;5.70;;;42.80;21.80;;;;;;5051259;28;20890;-67
2023/06/18 12:07:21;;;;;;;5.10;4.80;;;42.30;21.80;;;;;;5051318;28;20952;-66
2023/06/18 12:09:48;;;;;;;5.23;4.73;;;41.80;22.00;;;;;;5051245;28;20398;-66
2023/06/18 12:12:20;;;;;;;4.60;4.20;;;41.40;22.50;;;;;;5051223;28;20395;-66
2023/06/18 12:15:08;;;;;;;5.47;5.00;;;41.10;22.60;;;;;;5051414;28;20376;-67
2023/06/18 12:17:58;;;;;;;4.80;4.40;;;41.00;22.20;;;;;;5051233;28;20383;-66
2023/06/18 12:20:28;;;;;;;5.07;4.77;;;40.80;22.40;;;;;;5033101;28;20399;-67
2023/06/18 12:22:58;;;;;;;6.30;5.80;;;40.70;22.60;;;;;;5051257;28;20774;-66
2023/06/18 12:25:27;;;;;;;5.10;4.70;;;40.30;23.00;;;;;;5051116;28;20380;-66
2023/06/18 12:27:54;;;;;;;4.77;4.37;;;39.80;23.50;;;;;;5054392;28;20570;-65
2023/06/18 12:30:27;;;;;;;5.10;4.70;;;39.20;23.60;;;;;;5054462;28;20387;-65
2023/06/18 12:33:03;;;;;;;4.83;4.43;;;38.60;24.10;;;;;;5054844;28;20372;-66
2023/06/18 12:35:30;;;;;;;4.60;4.20;;;37.90;24.40;;;;;;5044712;28;20413;-65
2023/06/18 12:38:04;;;;;;;12.10;10.90;;;37.30;24.60;;;;;;5034847;28;20430;-66
2023/06/18 12:40:31;;;;;;;7.00;6.40;;;36.60;24.90;;;;;;5034397;28;20390;-66
2023/06/18 12:42:58;;;;;;;5.33;4.80;;;36.10;25.40;;;;;;5034841;28;20414;-68
2023/06/18 12:45:29;;;;;;;5.30;4.90;;;35.50;25.70;;;;;;5034657;28;20905;-68
2023/06/18 12:47:55;;;;;;;4.70;4.20;;;35.10;26.10;;;;;;5034604;28;20457;-66